createdAt,value
2023-02-24T00:04:52.961Z,6.00
2023-02-24T00:09:56.335Z,6.00
2023-02-24T00:14:59.464Z,6.00
2023-02-24T00:20:02.576Z,6.00
2023-02-24T00:25:06.570Z,6.10
2023-02-24T00:30:12.472Z,6.10
2023-02-24T00:35:15.678Z,6.10
2023-02-24T00:40:23.626Z,6.10
2023-02-24T00:45:34.133Z,6.10
2023-02-24T00:50:39.353Z,6.10
2023-02-24T00:55:42.391Z,6.20
2023-02-24T01:00:47.877Z,6.10
2023-02-24T01:05:51.063Z,6.10
2023-02-24T01:11:19.923Z,6.10
2023-02-24T01:16:23.623Z,6.10
2023-02-24T01:21:27.180Z,6.10
2023-02-24T01:26:31.462Z,6.10
2023-02-24T01:31:35.099Z,6.10
2023-02-24T01:36:41.718Z,6.10
2023-02-24T01:41:47.716Z,6.10
2023-02-24T01:46:54.041Z,6.10
2023-02-24T01:52:12.386Z,6.10
2023-02-24T01:57:20.156Z,6.20
2023-02-24T02:02:24.113Z,6.20
2023-02-24T02:07:29.938Z,6.20
2023-02-24T02:12:37.622Z,6.20
2023-02-24T02:18:05.229Z,6.20
2023-02-24T02:23:46.165Z,6.20
2023-02-24T02:29:16.804Z,6.20
2023-02-24T02:34:26.260Z,6.20
2023-02-24T02:39:59.140Z,6.20
2023-02-24T02:45:08.594Z,6.20
2023-02-24T02:50:46.314Z,6.20
2023-02-24T02:56:07.361Z,6.10
2023-02-24T03:01:12.905Z,6.10
2023-02-24T03:06:29.207Z,6.10
2023-02-24T03:11:34.029Z,6.10
2023-02-24T03:16:37.586Z,6.10
2023-02-24T03:21:47.127Z,6.10
2023-02-24T03:26:53.693Z,6.10
2023-02-24T03:32:05.169Z,6.10
2023-02-24T03:37:10.930Z,6.20
2023-02-24T03:42:21.247Z,6.10
2023-02-24T03:47:25.958Z,6.10
2023-02-24T03:52:50.748Z,6.10
2023-02-24T03:58:15.904Z,6.10
2023-02-24T04:03:41.370Z,6.10
2023-02-24T04:09:02.148Z,6.10
2023-02-24T04:14:43.815Z,6.10
2023-02-24T04:19:51.040Z,6.10
2023-02-24T04:25:00.115Z,6.10
2023-02-24T04:30:05.249Z,6.10
2023-02-24T04:35:12.618Z,6.10
2023-02-24T04:40:18.753Z,6.10
2023-02-24T04:45:32.598Z,6.10
2023-02-24T04:50:38.870Z,6.10
2023-02-24T04:55:44.480Z,6.10
2023-02-24T05:00:49.220Z,6.10
2023-02-24T05:05:58.550Z,6.10
2023-02-24T05:11:04.210Z,6.10
2023-02-24T05:16:09.502Z,6.10
2023-02-24T05:21:33.768Z,6.10
2023-02-24T05:26:41.995Z,6.10
2023-02-24T05:31:46.142Z,6.00
2023-02-24T05:36:50.019Z,6.00
2023-02-24T05:41:55.108Z,6.00
2023-02-24T05:46:59.573Z,6.00
2023-02-24T05:52:09.201Z,6.00
2023-02-24T05:57:15.829Z,6.00
2023-02-24T06:02:28.107Z,5.90
2023-02-24T06:07:34.920Z,6.00
2023-02-24T06:12:40.227Z,5.90
2023-02-24T06:17:45.556Z,5.90
2023-02-24T06:22:49.077Z,5.90
2023-02-24T06:27:56.150Z,6.00
2023-02-24T06:32:59.781Z,6.00
2023-02-24T06:38:03.108Z,6.00
2023-02-24T06:43:06.247Z,6.00
2023-02-24T06:48:09.742Z,6.00
2023-02-24T06:53:17.188Z,6.00
2023-02-24T06:58:20.929Z,5.90
2023-02-24T07:03:39.528Z,5.70
2023-02-24T07:08:44.482Z,5.60
2023-02-24T07:13:48.862Z,5.60
2023-02-24T07:19:10.162Z,5.70
2023-02-24T07:24:20.685Z,5.60
2023-02-24T07:29:25.521Z,5.60
2023-02-24T07:34:29.067Z,5.50
2023-02-24T07:39:32.810Z,5.50
2023-02-24T07:44:35.949Z,5.50
2023-02-24T07:49:41.316Z,5.50
2023-02-24T07:54:45.246Z,5.50
2023-02-24T07:59:48.582Z,5.40
2023-02-24T08:04:51.839Z,5.30
2023-02-24T08:10:12.806Z,5.20
2023-02-24T08:15:24.917Z,5.10
2023-02-24T08:20:36.547Z,5.00
2023-02-24T08:25:44.849Z,4.80
2023-02-24T08:30:48.001Z,4.60
2023-02-24T08:35:58.546Z,4.50
2023-02-24T08:41:05.274Z,4.30
2023-02-24T08:46:18.719Z,4.20
2023-02-24T08:51:35.257Z,4.10
2023-02-24T08:56:44.157Z,4.00
2023-02-24T09:02:04.205Z,3.90
2023-02-24T09:07:15.694Z,4.00
2023-02-24T09:12:29.355Z,4.00
2023-02-24T09:17:45.924Z,4.10
2023-02-24T09:23:13.194Z,4.20
2023-02-24T09:28:19.700Z,4.20
2023-02-24T09:33:42.037Z,4.20
2023-02-24T09:39:00.148Z,4.10
2023-02-24T09:44:20.109Z,4.20
2023-02-24T09:49:46.890Z,4.40
2023-02-24T09:55:12.424Z,4.50
2023-02-24T10:00:33.891Z,4.60
2023-02-24T10:06:01.427Z,4.80
2023-02-24T10:11:08.832Z,4.80
2023-02-24T10:16:16.429Z,4.70
2023-02-24T10:21:48.644Z,4.60
2023-02-24T10:27:08.322Z,4.60
2023-02-24T10:32:34.214Z,4.40
2023-02-24T10:37:37.596Z,4.50
2023-02-24T10:42:50.595Z,4.50
2023-02-24T10:47:59.225Z,4.50
2023-02-24T10:53:11.669Z,4.40
2023-02-24T10:58:54.022Z,4.40
2023-02-24T11:04:23.066Z,4.30
2023-02-24T11:09:30.334Z,4.30
2023-02-24T11:15:07.494Z,4.20
2023-02-24T11:20:42.335Z,4.20
2023-02-24T11:25:58.980Z,4.30
2023-02-24T11:31:23.522Z,4.20
2023-02-24T11:37:09.603Z,4.20
2023-02-24T11:42:19.871Z,4.10
2023-02-24T11:47:37.175Z,4.00
2023-02-24T11:52:47.384Z,4.00
2023-02-24T11:57:55.383Z,4.10
2023-02-24T12:03:13.490Z,4.10
2023-02-24T12:08:30.298Z,4.20
2023-02-24T12:13:49.220Z,4.20
2023-02-24T12:19:15.436Z,4.00
2023-02-24T12:24:19.794Z,4.00
2023-02-24T12:29:49.458Z,4.00
2023-02-24T12:35:11.110Z,3.90
2023-02-24T12:40:39.893Z,3.80
2023-02-24T12:46:19.149Z,3.80
2023-02-24T12:51:35.076Z,3.80
2023-02-24T12:56:51.026Z,4.00
2023-02-24T13:02:06.988Z,4.10
2023-02-24T13:07:29.055Z,4.00
2023-02-24T13:12:44.365Z,4.00
2023-02-24T13:17:51.878Z,4.00
2023-02-24T13:22:55.675Z,4.00
2023-02-24T13:28:21.789Z,4.10
2023-02-24T13:33:36.128Z,4.10
2023-02-24T13:39:06.238Z,4.20
2023-02-24T13:44:25.029Z,4.10
2023-02-24T13:50:13.671Z,4.00
2023-02-24T13:55:29.870Z,4.00
2023-02-24T14:00:57.895Z,4.00
2023-02-24T14:06:02.480Z,4.10
2023-02-24T14:11:10.646Z,4.20
2023-02-24T14:16:21.977Z,4.20
2023-02-24T14:21:31.715Z,4.30
2023-02-24T14:26:44.253Z,4.20
2023-02-24T14:31:50.674Z,4.20
2023-02-24T14:37:00.823Z,4.30
2023-02-24T14:42:12.931Z,4.40
2023-02-24T14:47:21.295Z,4.50
2023-02-24T14:52:58.237Z,4.50
2023-02-24T14:58:13.037Z,4.60
2023-02-24T15:03:40.040Z,4.60
2023-02-24T15:08:49.034Z,4.70
2023-02-24T15:14:14.725Z,4.60
2023-02-24T15:19:47.297Z,4.50
2023-02-24T15:24:52.951Z,4.50
2023-02-24T15:30:07.973Z,4.40
2023-02-24T15:35:25.090Z,4.40
2023-02-24T15:40:32.233Z,4.40
2023-02-24T15:45:40.413Z,4.30
2023-02-24T15:50:44.116Z,4.30
2023-02-24T15:55:47.441Z,4.20
2023-02-24T16:00:52.933Z,4.10
2023-02-24T16:05:57.096Z,4.10
2023-02-24T16:11:01.593Z,4.10
2023-02-24T16:16:07.176Z,4.10
2023-02-24T16:21:11.088Z,4.00
2023-02-24T16:26:19.551Z,4.00
2023-02-24T16:31:27.126Z,4.00
2023-02-24T16:36:31.748Z,4.00
2023-02-24T16:41:35.605Z,3.90
2023-02-24T16:46:44.028Z,3.90
2023-02-24T16:51:47.708Z,4.00
2023-02-24T16:56:51.569Z,4.00
2023-02-24T17:01:57.339Z,4.00
2023-02-24T17:07:01.774Z,3.90
2023-02-24T17:12:06.312Z,3.90
2023-02-24T17:17:11.317Z,3.90
2023-02-24T17:22:16.164Z,3.90
2023-02-24T17:27:19.772Z,3.90
2023-02-24T17:32:23.950Z,3.80
2023-02-24T17:37:28.182Z,3.80
2023-02-24T17:42:36.855Z,3.80
2023-02-24T17:47:43.765Z,3.80
2023-02-24T17:52:48.284Z,3.90
2023-02-24T17:57:53.882Z,3.90
2023-02-24T18:03:00.169Z,3.90
2023-02-24T18:08:05.283Z,3.90
2023-02-24T18:13:09.807Z,3.90
2023-02-24T18:18:17.004Z,4.00
2023-02-24T19:55:20.453Z,4.00
2023-02-24T23:53:22.982Z,3.30
2023-02-24T23:59:01.465Z,3.30
